EZS548Q LFSB-LFKJ
Flight info
| Callsign | EZS548Q |
|---|---|
| Flight time | 1h 1m |
| Altitude | 29000 |
| Route | OLBEN Z50 GERSA DCT SOSON DCT ODINA DCT ERTEV/N0360F230 DCT TORTU |
| Aircraft | A320/M-SDE2E3FGHIJ1RWXYZ/LB1 |
Departure
| Time | 2026-04-08 08:46 |
|---|---|
| Airport | EuroAirport Basel–Mulhouse–Freiburg (LFSB) |
Arrival
| Time | 2026-04-08 09:48 |
|---|---|
| Airport | Ajaccio Napoléon Bonaparte airport (LFKJ) |
| Time | Latitude | Longitude | Altitude | Speed | Heading |
|---|---|---|---|---|---|
| 2026-04-08 08:03 | 47.60102 | 7.52962 | 890 ft | 0 kts | 65° |
| 2026-04-08 08:35 | 47.60101 | 7.52957 | 890 ft | 3 kts | 65° |
| 2026-04-08 08:35 | 47.60089 | 7.52922 | 890 ft | 4 kts | 63° |
| 2026-04-08 08:35 | 47.60079 | 7.52886 | 890 ft | 4 kts | 74° |
| 2026-04-08 08:36 | 47.60071 | 7.52847 | 890 ft | 4 kts | 77° |
| 2026-04-08 08:36 | 47.60069 | 7.52830 | 890 ft | 1 kts | 79° |
| 2026-04-08 08:36 | 47.60069 | 7.52828 | 890 ft | 0 kts | 79° |
| 2026-04-08 08:38 | 47.60068 | 7.52829 | 890 ft | 0 kts | 83° |
| 2026-04-08 08:38 | 47.60068 | 7.52833 | 890 ft | 1 kts | 88° |
| 2026-04-08 08:39 | 47.60060 | 7.52857 | 890 ft | 3 kts | 139° |
| 2026-04-08 08:39 | 47.60046 | 7.52849 | 890 ft | 3 kts | 212° |
| 2026-04-08 08:39 | 47.60046 | 7.52807 | 890 ft | 6 kts | 294° |
| 2026-04-08 08:39 | 47.60042 | 7.52714 | 890 ft | 11 kts | 244° |
| 2026-04-08 08:40 | 47.59999 | 7.52582 | 890 ft | 12 kts | 245° |
| 2026-04-08 08:40 | 47.60025 | 7.52496 | 890 ft | 10 kts | 334° |
| 2026-04-08 08:40 | 47.60108 | 7.52439 | 890 ft | 17 kts | 334° |
| 2026-04-08 08:40 | 47.60232 | 7.52352 | 890 ft | 21 kts | 335° |
| 2026-04-08 08:41 | 47.60379 | 7.52251 | 884 ft | 25 kts | 335° |
| 2026-04-08 08:41 | 47.60534 | 7.52142 | 882 ft | 22 kts | 334° |
| 2026-04-08 08:41 | 47.60665 | 7.52050 | 882 ft | 15 kts | 335° |
| 2026-04-08 08:41 | 47.60765 | 7.51982 | 881 ft | 17 kts | 335° |
| 2026-04-08 08:42 | 47.60875 | 7.51906 | 880 ft | 19 kts | 334° |
| 2026-04-08 08:42 | 47.60998 | 7.51819 | 876 ft | 21 kts | 334° |
| 2026-04-08 08:42 | 47.61139 | 7.51722 | 873 ft | 24 kts | 335° |
| 2026-04-08 08:42 | 47.61293 | 7.51614 | 869 ft | 25 kts | 334° |
| 2026-04-08 08:43 | 47.61447 | 7.51507 | 857 ft | 24 kts | 334° |
| 2026-04-08 08:43 | 47.61602 | 7.51399 | 867 ft | 24 kts | 335° |
| 2026-04-08 08:43 | 47.61744 | 7.51301 | 873 ft | 18 kts | 335° |
| 2026-04-08 08:43 | 47.61808 | 7.51162 | 873 ft | 17 kts | 264° |
| 2026-04-08 08:44 | 47.61778 | 7.51051 | 876 ft | 10 kts | 245° |
| 2026-04-08 08:44 | 47.61742 | 7.51004 | 875 ft | 7 kts | 160° |
| 2026-04-08 08:44 | 47.61718 | 7.51023 | 875 ft | 0 kts | 156° |
| 2026-04-08 08:45 | 47.61716 | 7.51025 | 875 ft | 5 kts | 156° |
| 2026-04-08 08:45 | 47.61449 | 7.51211 | 871 ft | 81 kts | 154° |
| 2026-04-08 08:45 | 47.60744 | 7.51701 | 883 ft | 140 kts | 155° |
| 2026-04-08 08:46 | 47.59735 | 7.52403 | 1099 ft | 167 kts | 154° |
| 2026-04-08 08:46 | 47.58672 | 7.53128 | 1782 ft | 169 kts | 154° |
| 2026-04-08 08:46 | 47.57571 | 7.53880 | 2314 ft | 184 kts | 153° |
| 2026-04-08 08:46 | 47.56346 | 7.54730 | 2674 ft | 205 kts | 154° |
| 2026-04-08 08:47 | 47.54977 | 7.55673 | 3015 ft | 232 kts | 153° |
| 2026-04-08 08:47 | 47.53438 | 7.56751 | 3473 ft | 256 kts | 152° |
| 2026-04-08 08:47 | 47.51818 | 7.57878 | 4410 ft | 259 kts | 152° |
| 2026-04-08 08:47 | 47.50166 | 7.59025 | 5318 ft | 265 kts | 153° |
| 2026-04-08 08:48 | 47.48481 | 7.60197 | 6236 ft | 270 kts | 153° |
| 2026-04-08 08:48 | 47.46695 | 7.61150 | 7102 ft | 277 kts | 165° |
| 2026-04-08 08:48 | 47.44763 | 7.61494 | 7907 ft | 283 kts | 174° |
| 2026-04-08 08:48 | 47.42777 | 7.61696 | 8764 ft | 288 kts | 175° |
| 2026-04-08 08:49 | 47.40760 | 7.61900 | 9613 ft | 293 kts | 174° |
| 2026-04-08 08:49 | 47.38709 | 7.62111 | 10412 ft | 299 kts | 174° |
| 2026-04-08 08:49 | 47.37272 | 7.62259 | 10661 ft | 314 kts | 174° |
| 2026-04-08 08:49 | 47.35015 | 7.62491 | 11002 ft | 335 kts | 174° |
| 2026-04-08 08:50 | 47.32663 | 7.62743 | 11685 ft | 342 kts | 172° |
| 2026-04-08 08:50 | 47.30355 | 7.63589 | 12442 ft | 344 kts | 155° |
| 2026-04-08 08:50 | 47.28240 | 7.65265 | 13222 ft | 347 kts | 148° |
| 2026-04-08 08:50 | 47.26144 | 7.67070 | 13988 ft | 351 kts | 148° |
| 2026-04-08 08:51 | 47.24034 | 7.68924 | 14668 ft | 355 kts | 147° |
| 2026-04-08 08:51 | 47.21931 | 7.70789 | 15329 ft | 360 kts | 147° |
| 2026-04-08 08:51 | 47.19745 | 7.72728 | 15995 ft | 364 kts | 147° |
| 2026-04-08 08:51 | 47.17561 | 7.74663 | 16643 ft | 369 kts | 147° |
| 2026-04-08 08:52 | 47.15379 | 7.76586 | 17291 ft | 373 kts | 148° |
| 2026-04-08 08:52 | 47.13137 | 7.78552 | 17948 ft | 377 kts | 148° |
| 2026-04-08 08:52 | 47.10868 | 7.80534 | 18597 ft | 381 kts | 148° |
| 2026-04-08 08:52 | 47.08578 | 7.82528 | 19169 ft | 385 kts | 148° |
| 2026-04-08 08:53 | 47.06263 | 7.84542 | 19742 ft | 389 kts | 148° |
| 2026-04-08 08:53 | 47.03928 | 7.86575 | 20305 ft | 392 kts | 148° |
| 2026-04-08 08:53 | 47.01570 | 7.88631 | 20875 ft | 396 kts | 148° |
| 2026-04-08 08:53 | 46.99187 | 7.90710 | 21439 ft | 400 kts | 148° |
| 2026-04-08 08:54 | 46.96785 | 7.92802 | 21992 ft | 404 kts | 148° |
| 2026-04-08 08:54 | 46.94353 | 7.94917 | 22552 ft | 408 kts | 148° |
| 2026-04-08 08:54 | 46.91897 | 7.97050 | 23117 ft | 412 kts | 148° |
| 2026-04-08 08:54 | 46.89421 | 7.99199 | 23684 ft | 416 kts | 148° |
| 2026-04-08 08:55 | 46.86920 | 8.01367 | 24197 ft | 419 kts | 148° |
| 2026-04-08 08:55 | 46.84405 | 8.03543 | 24695 ft | 422 kts | 148° |
| 2026-04-08 08:55 | 46.81873 | 8.05729 | 25168 ft | 424 kts | 148° |
| 2026-04-08 08:55 | 46.79329 | 8.07925 | 25637 ft | 426 kts | 148° |
| 2026-04-08 08:56 | 46.76765 | 8.10134 | 26095 ft | 429 kts | 149° |
| 2026-04-08 08:56 | 46.74190 | 8.12348 | 26538 ft | 431 kts | 149° |
| 2026-04-08 08:56 | 46.71601 | 8.14575 | 26988 ft | 434 kts | 149° |
| 2026-04-08 08:56 | 46.68991 | 8.16820 | 27396 ft | 437 kts | 149° |
| 2026-04-08 08:57 | 46.66365 | 8.19074 | 27823 ft | 439 kts | 149° |
| 2026-04-08 08:57 | 46.63730 | 8.21335 | 28265 ft | 441 kts | 149° |
| 2026-04-08 08:57 | 46.61086 | 8.23606 | 28689 ft | 443 kts | 149° |
| 2026-04-08 08:57 | 46.58425 | 8.25890 | 29097 ft | 445 kts | 149° |
| 2026-04-08 08:58 | 46.55753 | 8.28175 | 29253 ft | 444 kts | 149° |
| 2026-04-08 08:58 | 46.53132 | 8.30409 | 29271 ft | 428 kts | 149° |
| 2026-04-08 08:58 | 46.48091 | 8.34701 | 29269 ft | 416 kts | 149° |
| 2026-04-08 08:59 | 46.43137 | 8.38906 | 29260 ft | 415 kts | 149° |
| 2026-04-08 08:59 | 46.38158 | 8.43129 | 29250 ft | 415 kts | 149° |
| 2026-04-08 09:00 | 46.33165 | 8.47357 | 29236 ft | 417 kts | 149° |
| 2026-04-08 09:00 | 46.28150 | 8.51591 | 29223 ft | 418 kts | 149° |
| 2026-04-08 09:01 | 46.20629 | 8.57941 | 29216 ft | 416 kts | 149° |
| 2026-04-08 09:02 | 46.15629 | 8.62151 | 29207 ft | 415 kts | 149° |
| 2026-04-08 09:02 | 46.10472 | 8.65864 | 29202 ft | 415 kts | 162° |
| 2026-04-08 09:02 | 46.07668 | 8.66817 | 29202 ft | 414 kts | 173° |
| 2026-04-08 09:03 | 46.04804 | 8.67202 | 29199 ft | 413 kts | 176° |
| 2026-04-08 09:03 | 45.99072 | 8.67896 | 29186 ft | 413 kts | 175° |
| 2026-04-08 09:04 | 45.93338 | 8.68612 | 29187 ft | 414 kts | 175° |
| 2026-04-08 09:04 | 45.87602 | 8.69316 | 29187 ft | 414 kts | 175° |
| 2026-04-08 09:05 | 45.81863 | 8.70027 | 29182 ft | 414 kts | 175° |
| 2026-04-08 09:05 | 45.76123 | 8.70739 | 29183 ft | 414 kts | 175° |
| 2026-04-08 09:06 | 45.70381 | 8.71438 | 29185 ft | 414 kts | 175° |
| 2026-04-08 09:06 | 45.64639 | 8.72132 | 29209 ft | 414 kts | 175° |
| 2026-04-08 09:07 | 45.58900 | 8.72827 | 29214 ft | 414 kts | 175° |
| 2026-04-08 09:07 | 45.53163 | 8.73528 | 29214 ft | 414 kts | 175° |
| 2026-04-08 09:08 | 45.47427 | 8.74236 | 29213 ft | 413 kts | 175° |
| 2026-04-08 09:08 | 45.41696 | 8.74931 | 29211 ft | 413 kts | 175° |
| 2026-04-08 09:09 | 45.35971 | 8.75615 | 29212 ft | 413 kts | 175° |
| 2026-04-08 09:09 | 45.30287 | 8.76304 | 29208 ft | 412 kts | 175° |
| 2026-04-08 09:10 | 45.24572 | 8.77005 | 29191 ft | 412 kts | 175° |
| 2026-04-08 09:10 | 45.18863 | 8.77695 | 29193 ft | 411 kts | 174° |
| 2026-04-08 09:11 | 45.13165 | 8.78371 | 29193 ft | 411 kts | 175° |
| 2026-04-08 09:11 | 45.07468 | 8.79045 | 29191 ft | 410 kts | 174° |
| 2026-04-08 09:12 | 45.01782 | 8.79730 | 29214 ft | 410 kts | 174° |
| 2026-04-08 09:12 | 44.96101 | 8.80413 | 29196 ft | 410 kts | 174° |
| 2026-04-08 09:13 | 44.90419 | 8.81093 | 29199 ft | 410 kts | 174° |
| 2026-04-08 09:13 | 44.84729 | 8.81772 | 29191 ft | 410 kts | 174° |
| 2026-04-08 09:14 | 44.79039 | 8.82448 | 29196 ft | 411 kts | 174° |
| 2026-04-08 09:14 | 44.73343 | 8.83118 | 29211 ft | 411 kts | 174° |
| 2026-04-08 09:15 | 44.67652 | 8.83789 | 29218 ft | 410 kts | 174° |
| 2026-04-08 09:15 | 44.61963 | 8.84462 | 29229 ft | 410 kts | 174° |
| 2026-04-08 09:16 | 44.56275 | 8.85127 | 29235 ft | 410 kts | 174° |
| 2026-04-08 09:16 | 44.50594 | 8.85793 | 29239 ft | 410 kts | 174° |
| 2026-04-08 09:17 | 44.44914 | 8.86462 | 29237 ft | 409 kts | 174° |
| 2026-04-08 09:17 | 44.39236 | 8.87133 | 29236 ft | 409 kts | 174° |
| 2026-04-08 09:18 | 44.33560 | 8.87795 | 29237 ft | 409 kts | 174° |
| 2026-04-08 09:18 | 44.27884 | 8.88456 | 29221 ft | 409 kts | 174° |
| 2026-04-08 09:19 | 44.22207 | 8.89119 | 29241 ft | 409 kts | 174° |
| 2026-04-08 09:19 | 44.16541 | 8.89774 | 29242 ft | 408 kts | 174° |
| 2026-04-08 09:20 | 44.10879 | 8.90433 | 29240 ft | 408 kts | 174° |
| 2026-04-08 09:20 | 44.05224 | 8.91088 | 29241 ft | 407 kts | 174° |
| 2026-04-08 09:21 | 43.99580 | 8.91737 | 29240 ft | 407 kts | 174° |
| 2026-04-08 09:21 | 43.93937 | 8.92389 | 29237 ft | 407 kts | 174° |
| 2026-04-08 09:22 | 43.88303 | 8.93039 | 29233 ft | 406 kts | 174° |
| 2026-04-08 09:22 | 43.82672 | 8.93681 | 29236 ft | 406 kts | 173° |
| 2026-04-08 09:23 | 43.77047 | 8.94328 | 29234 ft | 405 kts | 173° |
| 2026-04-08 09:23 | 43.71424 | 8.94976 | 29228 ft | 405 kts | 173° |
| 2026-04-08 09:24 | 43.65808 | 8.95617 | 29227 ft | 405 kts | 173° |
| 2026-04-08 09:24 | 43.60175 | 8.96039 | 29231 ft | 406 kts | 177° |
| 2026-04-08 09:25 | 43.54526 | 8.95981 | 29231 ft | 406 kts | 179° |
| 2026-04-08 09:25 | 43.48881 | 8.95848 | 29229 ft | 406 kts | 179° |
| 2026-04-08 09:26 | 43.43235 | 8.95796 | 29237 ft | 410 kts | 178° |
| 2026-04-08 09:26 | 43.40352 | 8.95764 | 29051 ft | 414 kts | 179° |
| 2026-04-08 09:26 | 43.37508 | 8.95243 | 28068 ft | 413 kts | 195° |
| 2026-04-08 09:26 | 43.34773 | 8.94062 | 27078 ft | 410 kts | 196° |
| 2026-04-08 09:27 | 43.32071 | 8.92862 | 26176 ft | 406 kts | 197° |
| 2026-04-08 09:27 | 43.29388 | 8.91659 | 25277 ft | 408 kts | 197° |
| 2026-04-08 09:27 | 43.26650 | 8.90430 | 24224 ft | 421 kts | 197° |
| 2026-04-08 09:27 | 43.23837 | 8.89173 | 23292 ft | 427 kts | 197° |
| 2026-04-08 09:28 | 43.21021 | 8.87916 | 22456 ft | 425 kts | 197° |
| 2026-04-08 09:28 | 43.18219 | 8.86667 | 21890 ft | 421 kts | 197° |
| 2026-04-08 09:28 | 43.15481 | 8.85448 | 21376 ft | 418 kts | 197° |
| 2026-04-08 09:28 | 43.12779 | 8.84017 | 21190 ft | 417 kts | 209° |
| 2026-04-08 09:29 | 43.10327 | 8.81889 | 21227 ft | 418 kts | 209° |
| 2026-04-08 09:29 | 43.07643 | 8.80409 | 21235 ft | 417 kts | 196° |
| 2026-04-08 09:29 | 43.04869 | 8.79262 | 21230 ft | 417 kts | 195° |
| 2026-04-08 09:29 | 43.02090 | 8.78132 | 21233 ft | 417 kts | 195° |
| 2026-04-08 09:30 | 42.99313 | 8.76999 | 21230 ft | 417 kts | 195° |
| 2026-04-08 09:30 | 42.96539 | 8.75852 | 21230 ft | 417 kts | 196° |
| 2026-04-08 09:30 | 42.93767 | 8.74692 | 21230 ft | 417 kts | 196° |
| 2026-04-08 09:30 | 42.91000 | 8.73525 | 21230 ft | 417 kts | 196° |
| 2026-04-08 09:31 | 42.88228 | 8.72351 | 21231 ft | 417 kts | 196° |
| 2026-04-08 09:31 | 42.85464 | 8.71179 | 21226 ft | 416 kts | 196° |
| 2026-04-08 09:31 | 42.82694 | 8.70004 | 21161 ft | 417 kts | 196° |
| 2026-04-08 09:31 | 42.79929 | 8.68839 | 20904 ft | 415 kts | 196° |
| 2026-04-08 09:32 | 42.77179 | 8.67684 | 20654 ft | 413 kts | 196° |
| 2026-04-08 09:32 | 42.74435 | 8.66532 | 20392 ft | 412 kts | 196° |
| 2026-04-08 09:32 | 42.71707 | 8.65387 | 19930 ft | 409 kts | 196° |
| 2026-04-08 09:32 | 42.68999 | 8.64251 | 19433 ft | 406 kts | 196° |
| 2026-04-08 09:33 | 42.66312 | 8.63123 | 18935 ft | 403 kts | 196° |
| 2026-04-08 09:33 | 42.63642 | 8.62004 | 18430 ft | 400 kts | 196° |
| 2026-04-08 09:33 | 42.60994 | 8.60898 | 17914 ft | 396 kts | 196° |
| 2026-04-08 09:33 | 42.58377 | 8.59803 | 17442 ft | 392 kts | 196° |
| 2026-04-08 09:34 | 42.55782 | 8.58715 | 17012 ft | 387 kts | 197° |
| 2026-04-08 09:34 | 42.53238 | 8.57649 | 16772 ft | 378 kts | 197° |
| 2026-04-08 09:34 | 42.50771 | 8.56618 | 16629 ft | 365 kts | 197° |
| 2026-04-08 09:34 | 42.48366 | 8.55616 | 16303 ft | 359 kts | 197° |
| 2026-04-08 09:35 | 42.46756 | 8.54947 | 16030 ft | 357 kts | 197° |
| 2026-04-08 09:35 | 42.43646 | 8.53657 | 15274 ft | 349 kts | 197° |
| 2026-04-08 09:35 | 42.42079 | 8.53006 | 14734 ft | 347 kts | 197° |
| 2026-04-08 09:35 | 42.39780 | 8.52050 | 14129 ft | 347 kts | 197° |
| 2026-04-08 09:36 | 42.37478 | 8.51093 | 13679 ft | 345 kts | 197° |
| 2026-04-08 09:36 | 42.35194 | 8.50144 | 13253 ft | 342 kts | 197° |
| 2026-04-08 09:36 | 42.32925 | 8.49201 | 12847 ft | 340 kts | 198° |
| 2026-04-08 09:36 | 42.30672 | 8.48270 | 12428 ft | 338 kts | 197° |
| 2026-04-08 09:37 | 42.28429 | 8.47346 | 12008 ft | 336 kts | 198° |
| 2026-04-08 09:37 | 42.26234 | 8.46440 | 11594 ft | 334 kts | 198° |
| 2026-04-08 09:37 | 42.24022 | 8.45526 | 11168 ft | 332 kts | 198° |
| 2026-04-08 09:37 | 42.21770 | 8.44919 | 10743 ft | 330 kts | 184° |
| 2026-04-08 09:38 | 42.19485 | 8.45123 | 10213 ft | 331 kts | 170° |
| 2026-04-08 09:38 | 42.17208 | 8.45722 | 9654 ft | 329 kts | 169° |
| 2026-04-08 09:38 | 42.15050 | 8.46307 | 9466 ft | 304 kts | 169° |
| 2026-04-08 09:38 | 42.13008 | 8.46864 | 9039 ft | 297 kts | 169° |
| 2026-04-08 09:39 | 42.10996 | 8.47412 | 8674 ft | 293 kts | 169° |
| 2026-04-08 09:39 | 42.09006 | 8.47950 | 8281 ft | 290 kts | 169° |
| 2026-04-08 09:39 | 42.07034 | 8.48479 | 7896 ft | 287 kts | 169° |
| 2026-04-08 09:39 | 42.05086 | 8.48999 | 7549 ft | 284 kts | 169° |
| 2026-04-08 09:40 | 42.03156 | 8.49512 | 7209 ft | 282 kts | 169° |
| 2026-04-08 09:40 | 42.01239 | 8.50023 | 6873 ft | 280 kts | 169° |
| 2026-04-08 09:40 | 41.99336 | 8.50559 | 6529 ft | 279 kts | 165° |
| 2026-04-08 09:40 | 41.97562 | 8.51581 | 6183 ft | 278 kts | 149° |
| 2026-04-08 09:41 | 41.96055 | 8.53189 | 5844 ft | 276 kts | 136° |
| 2026-04-08 09:41 | 41.94682 | 8.54989 | 5510 ft | 276 kts | 136° |
| 2026-04-08 09:41 | 41.93315 | 8.56767 | 5236 ft | 269 kts | 136° |
| 2026-04-08 09:41 | 41.92001 | 8.58466 | 5111 ft | 256 kts | 136° |
| 2026-04-08 09:42 | 41.90785 | 8.60126 | 4972 ft | 244 kts | 128° |
| 2026-04-08 09:42 | 41.89969 | 8.62053 | 4918 ft | 238 kts | 110° |
| 2026-04-08 09:42 | 41.89614 | 8.64234 | 4803 ft | 241 kts | 96° |
| 2026-04-08 09:42 | 41.89426 | 8.66470 | 4664 ft | 241 kts | 97° |
| 2026-04-08 09:43 | 41.89237 | 8.68695 | 4520 ft | 237 kts | 96° |
| 2026-04-08 09:43 | 41.89087 | 8.70851 | 4376 ft | 228 kts | 88° |
| 2026-04-08 09:43 | 41.89512 | 8.72821 | 4237 ft | 217 kts | 56° |
| 2026-04-08 09:43 | 41.90522 | 8.74242 | 4120 ft | 206 kts | 40° |
| 2026-04-08 09:44 | 41.91610 | 8.75419 | 3994 ft | 197 kts | 26° |
| 2026-04-08 09:44 | 41.92832 | 8.76194 | 3802 ft | 194 kts | 24° |
| 2026-04-08 09:44 | 41.94056 | 8.76976 | 3456 ft | 194 kts | 25° |
| 2026-04-08 09:44 | 41.95262 | 8.77756 | 3072 ft | 192 kts | 24° |
| 2026-04-08 09:45 | 41.96448 | 8.78537 | 2620 ft | 188 kts | 25° |
| 2026-04-08 09:45 | 41.97619 | 8.79318 | 2178 ft | 188 kts | 27° |
| 2026-04-08 09:45 | 41.98558 | 8.80501 | 1818 ft | 186 kts | 67° |
| 2026-04-08 09:45 | 41.98499 | 8.82076 | 1546 ft | 165 kts | 128° |
| 2026-04-08 09:46 | 41.97587 | 8.82735 | 1308 ft | 146 kts | 178° |
| 2026-04-08 09:46 | 41.96613 | 8.82645 | 1057 ft | 138 kts | 196° |
| 2026-04-08 09:46 | 41.95713 | 8.82225 | 795 ft | 137 kts | 204° |
| 2026-04-08 09:46 | 41.94841 | 8.81718 | 550 ft | 135 kts | 203° |
| 2026-04-08 09:47 | 41.93982 | 8.81227 | 308 ft | 133 kts | 205° |
| 2026-04-08 09:47 | 41.93136 | 8.80703 | 94 ft | 134 kts | 205° |
| 2026-04-08 09:47 | 41.92337 | 8.80209 | 27 ft | 110 kts | 205° |
| 2026-04-08 09:47 | 41.91809 | 8.79882 | 24 ft | 62 kts | 204° |
| 2026-04-08 09:48 | 41.91496 | 8.79687 | 22 ft | 36 kts | 204° |
| 2026-04-08 09:48 | 41.91340 | 8.79590 | 22 ft | 17 kts | 207° |
| 2026-04-08 09:48 | 41.91258 | 8.79527 | 22 ft | 13 kts | 226° |
| 2026-04-08 09:48 | 41.91252 | 8.79433 | 22 ft | 9 kts | 311° |
| 2026-04-08 09:49 | 41.91303 | 8.79393 | 21 ft | 8 kts | 334° |
| 2026-04-08 09:49 | 41.91355 | 8.79359 | 21 ft | 10 kts | 333° |
| 2026-04-08 09:49 | 41.91417 | 8.79321 | 21 ft | 9 kts | 345° |
| 2026-04-08 09:49 | 41.91498 | 8.79342 | 21 ft | 15 kts | 23° |
| 2026-04-08 09:50 | 41.91589 | 8.79404 | 21 ft | 14 kts | 33° |
| 2026-04-08 09:50 | 41.91671 | 8.79464 | 21 ft | 13 kts | 25° |
| 2026-04-08 09:50 | 41.91785 | 8.79534 | 21 ft | 19 kts | 25° |
| 2026-04-08 09:50 | 41.91897 | 8.79605 | 23 ft | 12 kts | 25° |
| 2026-04-08 09:51 | 41.91938 | 8.79586 | 22 ft | 3 kts | 309° |
| 2026-04-08 09:51 | 41.91952 | 8.79576 | 21 ft | 1 kts | 351° |
| 2026-04-08 09:51 | 41.91960 | 8.79574 | 21 ft | 1 kts | 348° |
| 2026-04-08 09:51 | 41.91966 | 8.79572 | 21 ft | 1 kts | 347° |
| 2026-04-08 09:52 | 41.91971 | 8.79570 | 21 ft | 0 kts | 346° |